createdAt,value
2022-08-26T00:00:20.359Z,23.25
2022-08-26T00:02:48.750Z,23.25
2022-08-26T00:05:17.378Z,23.23
2022-08-26T00:07:47.826Z,23.21
2022-08-26T00:10:17.442Z,23.18
2022-08-26T00:12:45.924Z,23.17
2022-08-26T00:15:16.725Z,23.14
2022-08-26T00:17:45.213Z,23.11
2022-08-26T00:20:20.372Z,23.10
2022-08-26T00:22:50.182Z,23.07
2022-08-26T00:25:19.415Z,23.03
2022-08-26T00:27:48.000Z,23.00
2022-08-26T00:30:22.750Z,22.97
2022-08-26T00:32:52.529Z,22.94
2022-08-26T00:35:22.318Z,22.90
2022-08-26T00:37:53.006Z,22.86
2022-08-26T00:40:24.475Z,22.81
2022-08-26T00:42:53.276Z,22.77
2022-08-26T00:45:22.646Z,22.74
2022-08-26T00:47:55.083Z,22.71
2022-08-26T00:50:27.598Z,22.67
2022-08-26T00:53:00.092Z,22.62
2022-08-26T00:55:38.235Z,22.55
2022-08-26T00:58:07.747Z,22.50
2022-08-26T01:00:36.411Z,22.47
2022-08-26T01:03:05.526Z,22.44
2022-08-26T01:05:36.586Z,22.39
2022-08-26T01:08:06.560Z,22.35
2022-08-26T01:10:35.104Z,22.31
2022-08-26T01:13:09.968Z,22.28
2022-08-26T01:15:43.385Z,22.24
2022-08-26T01:18:14.549Z,22.20
2022-08-26T01:20:57.532Z,22.17
2022-08-26T01:23:32.323Z,22.13
2022-08-26T01:26:06.137Z,22.12
2022-08-26T01:28:36.661Z,22.10
2022-08-26T01:31:08.856Z,22.08
2022-08-26T01:33:44.515Z,22.06
2022-08-26T01:36:13.889Z,22.03
2022-08-26T01:38:44.162Z,22.02
2022-08-26T01:41:19.717Z,21.98
2022-08-26T01:43:57.936Z,21.95
2022-08-26T01:46:29.320Z,21.92
2022-08-26T01:49:00.954Z,21.89
2022-08-26T01:51:30.183Z,21.86
2022-08-26T01:53:59.969Z,21.83
2022-08-26T01:56:33.066Z,21.81
2022-08-26T01:59:06.761Z,21.77
2022-08-26T02:01:35.785Z,21.76
2022-08-26T02:04:17.528Z,21.76
2022-08-26T02:06:46.857Z,21.72
2022-08-26T02:09:18.137Z,21.68
2022-08-26T02:11:49.106Z,21.65
2022-08-26T02:14:22.470Z,21.61
2022-08-26T02:16:54.123Z,21.59
2022-08-26T02:19:27.707Z,21.58
2022-08-26T02:21:58.898Z,21.54
2022-08-26T02:24:32.114Z,21.52
2022-08-26T02:27:01.404Z,21.51
2022-08-26T02:29:33.840Z,21.48
2022-08-26T02:32:02.297Z,21.44
2022-08-26T02:34:32.933Z,21.41
2022-08-26T02:37:03.026Z,21.38
2022-08-26T02:39:35.265Z,21.35
2022-08-26T02:42:04.810Z,21.33
2022-08-26T02:44:34.086Z,21.30
2022-08-26T02:47:02.762Z,21.28
2022-08-26T02:49:31.356Z,21.24
2022-08-26T02:52:01.846Z,21.21
2022-08-26T02:54:30.480Z,21.17
2022-08-26T02:57:00.524Z,21.13
2022-08-26T02:59:29.214Z,21.09
2022-08-26T03:01:58.344Z,21.06
2022-08-26T03:04:26.706Z,21.03
2022-08-26T03:06:56.115Z,20.99
2022-08-26T03:09:24.745Z,20.96
2022-08-26T03:11:55.282Z,20.92
2022-08-26T03:14:25.601Z,20.89
2022-08-26T03:16:55.544Z,20.85
2022-08-26T03:19:25.462Z,20.82
2022-08-26T03:21:57.879Z,20.79
2022-08-26T03:24:27.241Z,20.75
2022-08-26T03:26:55.560Z,20.73
2022-08-26T03:29:43.097Z,20.70
2022-08-26T03:32:11.934Z,20.65
2022-08-26T03:34:40.522Z,20.61
2022-08-26T03:37:09.041Z,20.60
2022-08-26T03:39:38.026Z,20.60
2022-08-26T03:42:06.798Z,20.59
2022-08-26T03:44:42.083Z,20.59
2022-08-26T03:47:10.790Z,20.59
2022-08-26T03:49:39.182Z,20.61
2022-08-26T03:52:07.850Z,20.61
2022-08-26T03:54:36.218Z,20.62
2022-08-26T03:57:04.767Z,20.64
2022-08-26T03:59:33.666Z,20.65
2022-08-26T04:02:03.662Z,20.67
2022-08-26T04:04:40.226Z,20.70
2022-08-26T04:07:08.668Z,20.72
2022-08-26T04:09:37.180Z,20.74
2022-08-26T04:12:06.121Z,20.76
2022-08-26T04:14:35.574Z,20.80
2022-08-26T04:17:07.626Z,20.81
2022-08-26T04:19:35.966Z,20.85
2022-08-26T04:22:04.339Z,20.87
2022-08-26T04:24:32.908Z,20.91
2022-08-26T04:27:02.455Z,20.95
2022-08-26T04:29:30.934Z,21.00
2022-08-26T04:31:59.488Z,21.05
2022-08-26T04:34:30.077Z,21.10
2022-08-26T04:36:58.669Z,21.15
2022-08-26T04:39:27.995Z,21.18
2022-08-26T04:41:57.691Z,21.23
2022-08-26T04:44:28.411Z,21.27
2022-08-26T04:46:58.350Z,21.29
2022-08-26T04:49:27.501Z,21.34
2022-08-26T04:51:57.793Z,21.37
2022-08-26T04:54:26.306Z,21.40
2022-08-26T04:56:55.041Z,21.42
2022-08-26T04:59:23.583Z,21.45
2022-08-26T05:01:57.248Z,21.48
2022-08-26T05:04:25.987Z,21.51
2022-08-26T05:06:59.232Z,21.54
2022-08-26T05:09:32.209Z,21.56
2022-08-26T05:12:00.554Z,21.59
2022-08-26T05:14:29.045Z,21.59
2022-08-26T05:16:57.478Z,21.61
2022-08-26T05:19:27.987Z,21.62
2022-08-26T05:21:56.563Z,21.66
2022-08-26T05:24:25.309Z,21.68
2022-08-26T05:26:58.018Z,21.70
2022-08-26T05:29:28.375Z,21.73
2022-08-26T05:31:56.727Z,21.75
2022-08-26T05:34:30.343Z,21.75
2022-08-26T05:36:59.271Z,21.78
2022-08-26T05:39:27.631Z,21.78
2022-08-26T05:41:58.265Z,21.80
2022-08-26T05:44:26.730Z,21.80
2022-08-26T05:46:55.116Z,21.83
2022-08-26T05:49:26.256Z,21.84
2022-08-26T05:51:54.956Z,21.85
2022-08-26T05:54:23.350Z,21.86
2022-08-26T05:56:52.387Z,21.86
2022-08-26T05:59:24.023Z,21.89
2022-08-26T06:01:54.598Z,21.91
2022-08-26T06:04:26.771Z,21.93
2022-08-26T06:06:56.026Z,21.97
2022-08-26T06:09:24.811Z,21.97
2022-08-26T06:11:53.601Z,22.00
2022-08-26T06:14:23.783Z,22.02
2022-08-26T06:16:52.240Z,22.04
2022-08-26T06:19:21.681Z,22.06
2022-08-26T06:21:54.769Z,22.07
2022-08-26T06:24:40.961Z,22.09
2022-08-26T06:27:13.539Z,22.11
2022-08-26T06:29:43.554Z,22.14
2022-08-26T06:32:11.918Z,22.15
2022-08-26T06:34:40.379Z,22.17
2022-08-26T06:37:09.723Z,22.18
2022-08-26T06:39:41.146Z,22.19
2022-08-26T06:42:10.955Z,22.20
2022-08-26T06:44:41.639Z,22.20
2022-08-26T06:47:14.612Z,22.20
2022-08-26T06:49:44.298Z,22.21
2022-08-26T06:52:12.822Z,22.21
2022-08-26T06:54:43.127Z,22.22
2022-08-26T06:57:12.868Z,22.24
2022-08-26T06:59:43.015Z,22.25
2022-08-26T07:02:13.417Z,22.27
2022-08-26T07:04:44.406Z,22.29
2022-08-26T07:07:17.005Z,22.30
2022-08-26T07:09:45.846Z,22.32
2022-08-26T07:12:14.251Z,22.34
2022-08-26T07:14:43.853Z,22.36
2022-08-26T07:17:16.483Z,22.38
2022-08-26T07:19:46.264Z,22.39
2022-08-26T07:22:14.621Z,22.42
2022-08-26T07:24:43.419Z,22.45
2022-08-26T07:27:14.774Z,22.47
2022-08-26T07:29:44.759Z,22.48
2022-08-26T07:32:15.959Z,22.50
2022-08-26T07:34:46.250Z,22.50
2022-08-26T07:37:14.891Z,22.50
2022-08-26T07:39:44.277Z,22.51
2022-08-26T07:42:14.339Z,22.53
2022-08-26T07:44:43.857Z,22.53
2022-08-26T07:47:25.580Z,22.54
2022-08-26T07:49:58.027Z,22.54
2022-08-26T07:52:28.776Z,22.55
2022-08-26T07:54:58.560Z,22.58
2022-08-26T07:57:27.192Z,22.59
2022-08-26T07:59:56.769Z,22.60
2022-08-26T08:02:26.735Z,22.60
2022-08-26T08:04:57.865Z,22.62
2022-08-26T08:07:44.541Z,22.60
2022-08-26T08:10:16.547Z,22.60
2022-08-26T08:12:45.331Z,22.59
2022-08-26T08:15:15.380Z,22.59
2022-08-26T08:17:44.443Z,22.59
2022-08-26T08:20:15.770Z,22.61
2022-08-26T08:22:44.937Z,22.64
2022-08-26T08:25:13.880Z,22.60
2022-08-26T08:27:45.056Z,22.58
2022-08-26T08:30:14.494Z,22.57
2022-08-26T08:32:44.272Z,22.55
2022-08-26T08:35:16.914Z,22.55
2022-08-26T08:37:46.265Z,22.54
2022-08-26T08:40:18.299Z,22.56
2022-08-26T08:42:54.569Z,22.58
2022-08-26T08:45:33.353Z,22.57
2022-08-26T08:48:08.096Z,22.56
2022-08-26T08:50:45.788Z,22.56
2022-08-26T08:53:15.775Z,22.56
2022-08-26T08:56:08.920Z,22.56
2022-08-26T08:58:51.415Z,22.57
2022-08-26T09:01:29.143Z,22.59
2022-08-26T09:04:17.237Z,22.59
2022-08-26T09:06:48.256Z,22.58
2022-08-26T09:09:23.496Z,22.58
2022-08-26T09:11:51.903Z,22.57
2022-08-26T09:14:20.308Z,22.58
2022-08-26T09:16:59.006Z,22.59
2022-08-26T09:19:36.096Z,22.59
2022-08-26T09:22:09.410Z,22.58
2022-08-26T09:24:41.516Z,22.59
2022-08-26T09:27:11.503Z,22.59
2022-08-26T09:29:45.416Z,22.62
2022-08-26T09:32:24.332Z,22.64
2022-08-26T09:34:54.962Z,22.65
2022-08-26T09:37:36.541Z,22.63
2022-08-26T09:40:27.165Z,22.63
2022-08-26T09:43:22.227Z,22.65
2022-08-26T09:45:58.446Z,22.64
2022-08-26T09:48:31.994Z,22.66
2022-08-26T09:51:06.907Z,22.68
2022-08-26T09:53:51.899Z,22.67
2022-08-26T09:56:27.943Z,22.66
2022-08-26T09:58:57.677Z,22.67
2022-08-26T10:01:32.227Z,22.65
2022-08-26T10:04:07.982Z,22.65
2022-08-26T10:06:41.669Z,22.66
2022-08-26T10:09:14.841Z,22.67
2022-08-26T10:11:47.283Z,22.69
2022-08-26T10:14:24.285Z,22.70
2022-08-26T10:16:58.389Z,22.72
2022-08-26T10:19:41.796Z,22.73
2022-08-26T10:22:28.670Z,22.75
2022-08-26T10:25:03.009Z,22.77
2022-08-26T10:27:51.026Z,22.79
2022-08-26T10:30:23.347Z,22.78
2022-08-26T10:32:56.844Z,22.81
2022-08-26T10:35:26.979Z,22.81
2022-08-26T10:37:59.493Z,22.82
2022-08-26T10:40:45.877Z,22.81
2022-08-26T10:43:23.605Z,22.85
2022-08-26T10:45:58.555Z,22.86
2022-08-26T10:48:35.522Z,22.86
2022-08-26T10:51:05.663Z,22.88
2022-08-26T10:53:48.033Z,22.87
2022-08-26T10:56:30.717Z,22.88
2022-08-26T10:59:12.557Z,22.89
2022-08-26T11:01:52.581Z,22.89
2022-08-26T11:04:36.243Z,22.91
2022-08-26T11:07:39.263Z,22.93
2022-08-26T11:10:30.769Z,22.93
2022-08-26T11:13:03.517Z,22.93
2022-08-26T11:16:10.903Z,22.93
2022-08-26T11:18:51.460Z,22.92
2022-08-26T11:21:50.863Z,22.92
2022-08-26T11:24:45.816Z,22.92
2022-08-26T11:27:47.339Z,22.93
2022-08-26T11:30:39.980Z,22.94
2022-08-26T11:33:09.128Z,22.94
2022-08-26T11:35:50.041Z,22.98
2022-08-26T11:38:28.433Z,22.99
2022-08-26T11:41:04.145Z,23.00
2022-08-26T11:43:34.116Z,23.02
2022-08-26T11:46:06.861Z,23.06
2022-08-26T11:48:39.738Z,23.07
2022-08-26T11:51:10.327Z,23.10
2022-08-26T11:53:42.443Z,23.11
2022-08-26T11:56:13.624Z,23.15
2022-08-26T11:58:43.170Z,23.17
2022-08-26T12:01:31.264Z,23.20
2022-08-26T12:04:01.273Z,23.21
2022-08-26T12:06:35.455Z,23.22
2022-08-26T12:09:12.468Z,23.25
2022-08-26T12:11:41.268Z,23.27
2022-08-26T12:14:19.700Z,23.30
2022-08-26T12:16:49.771Z,23.32
2022-08-26T12:19:26.275Z,23.35
2022-08-26T12:22:01.948Z,23.37
2022-08-26T12:24:31.158Z,23.36
2022-08-26T12:27:15.346Z,23.37
2022-08-26T12:29:43.778Z,23.37
2022-08-26T12:32:19.295Z,23.37
2022-08-26T12:34:49.959Z,23.39
2022-08-26T12:37:19.084Z,23.40
2022-08-26T12:39:47.927Z,23.42
2022-08-26T12:42:42.143Z,23.45
2022-08-26T12:45:11.197Z,23.48
2022-08-26T12:47:44.201Z,23.50
2022-08-26T12:50:19.162Z,23.51
2022-08-26T12:52:57.247Z,23.53
2022-08-26T12:55:35.477Z,23.53
2022-08-26T12:58:26.051Z,23.55
2022-08-26T13:00:56.280Z,23.56
2022-08-26T13:03:43.152Z,23.58
2022-08-26T13:06:16.878Z,23.62
2022-08-26T13:08:46.034Z,23.66
2022-08-26T13:11:18.461Z,23.73
2022-08-26T13:13:48.141Z,23.79
2022-08-26T13:16:16.804Z,23.88
2022-08-26T13:18:48.745Z,23.96
2022-08-26T13:21:19.028Z,24.02
2022-08-26T13:23:47.985Z,24.07
2022-08-26T13:26:16.879Z,24.09
2022-08-26T13:28:45.338Z,24.13
2022-08-26T13:31:21.743Z,24.16
2022-08-26T13:33:57.838Z,24.18
2022-08-26T13:36:26.198Z,24.21
2022-08-26T13:38:54.585Z,24.22
2022-08-26T13:41:28.908Z,24.23
2022-08-26T13:44:00.215Z,24.24
2022-08-26T13:46:30.722Z,24.26
2022-08-26T13:49:00.949Z,24.26
2022-08-26T13:51:30.168Z,24.28
2022-08-26T13:53:59.388Z,24.29
2022-08-26T13:56:29.469Z,24.28
2022-08-26T13:58:58.264Z,24.25
2022-08-26T14:01:27.720Z,24.23
2022-08-26T14:03:56.261Z,24.20
2022-08-26T14:06:26.164Z,24.18
2022-08-26T14:08:54.655Z,24.14
2022-08-26T14:11:23.137Z,24.12
2022-08-26T14:13:51.580Z,24.10
2022-08-26T14:16:25.911Z,24.09
2022-08-26T14:18:55.046Z,24.05
2022-08-26T14:21:24.778Z,24.03
2022-08-26T14:23:58.981Z,24.00
2022-08-26T14:26:30.077Z,24.00
2022-08-26T14:28:59.622Z,23.97
2022-08-26T14:31:29.269Z,23.95
2022-08-26T14:33:59.471Z,23.94
2022-08-26T14:36:32.061Z,23.95
2022-08-26T14:39:04.898Z,23.94
2022-08-26T14:41:34.219Z,23.95
2022-08-26T14:44:05.369Z,23.94
2022-08-26T14:46:38.660Z,23.92
2022-08-26T14:49:10.397Z,23.90
2022-08-26T14:51:39.525Z,23.89
2022-08-26T14:54:13.019Z,23.87
2022-08-26T14:56:45.775Z,23.87
2022-08-26T14:59:15.979Z,23.86
2022-08-26T15:01:44.800Z,23.87
2022-08-26T15:04:13.234Z,23.86
2022-08-26T15:06:42.205Z,23.85
2022-08-26T15:09:12.826Z,23.84
2022-08-26T15:11:41.508Z,23.80
2022-08-26T15:14:14.805Z,23.78
2022-08-26T15:16:48.950Z,23.77
2022-08-26T15:19:18.038Z,23.78
2022-08-26T15:21:47.184Z,23.89
2022-08-26T15:24:21.956Z,24.06
2022-08-26T15:26:50.681Z,24.17
2022-08-26T15:29:19.571Z,24.27
2022-08-26T15:31:48.681Z,24.35
2022-08-26T15:34:17.453Z,24.40
2022-08-26T15:36:47.212Z,24.41
2022-08-26T15:39:18.218Z,24.37
2022-08-26T15:41:47.562Z,24.30
2022-08-26T15:44:17.245Z,24.27
2022-08-26T15:46:45.730Z,24.22
2022-08-26T15:49:17.690Z,24.18
2022-08-26T15:51:50.251Z,24.14
2022-08-26T15:54:22.542Z,24.11
2022-08-26T15:56:52.207Z,24.07
2022-08-26T15:59:22.043Z,24.03
2022-08-26T16:01:51.124Z,24.00
2022-08-26T16:04:20.101Z,23.95
2022-08-26T16:06:51.379Z,23.93
2022-08-26T16:09:24.222Z,23.90
2022-08-26T16:11:52.934Z,23.90
2022-08-26T16:14:21.484Z,23.88
2022-08-26T16:16:50.553Z,23.85
2022-08-26T16:19:19.123Z,23.82
2022-08-26T16:21:48.017Z,23.79
2022-08-26T16:24:16.426Z,23.78
2022-08-26T16:26:46.199Z,23.75
2022-08-26T16:29:17.566Z,23.74
2022-08-26T16:31:47.516Z,23.70
2022-08-26T16:34:15.877Z,23.68
2022-08-26T16:36:44.189Z,23.64
2022-08-26T16:39:13.178Z,23.61
2022-08-26T16:41:41.703Z,23.57
2022-08-26T16:44:11.936Z,23.54
2022-08-26T16:46:41.137Z,23.53
2022-08-26T16:49:09.619Z,23.52
2022-08-26T16:51:38.629Z,23.50
2022-08-26T16:54:08.756Z,23.47
2022-08-26T16:56:37.733Z,23.44
2022-08-26T16:59:07.795Z,23.43
2022-08-26T17:01:37.814Z,23.41
2022-08-26T17:04:06.364Z,23.40
2022-08-26T17:06:35.074Z,23.37
2022-08-26T17:09:03.469Z,23.35
2022-08-26T17:11:31.995Z,23.31
2022-08-26T17:14:00.442Z,23.29
2022-08-26T17:16:28.968Z,23.26
2022-08-26T17:19:00.100Z,23.25
2022-08-26T17:21:29.259Z,23.24
2022-08-26T17:23:57.723Z,23.23
2022-08-26T17:26:27.949Z,23.20
2022-08-26T17:28:56.389Z,23.19
2022-08-26T17:31:25.318Z,23.17
2022-08-26T17:33:54.830Z,23.15
2022-08-26T17:36:28.085Z,23.13
2022-08-26T17:38:57.943Z,23.12
2022-08-26T17:41:27.042Z,23.10
2022-08-26T17:43:55.933Z,23.08
2022-08-26T17:46:24.856Z,23.08
2022-08-26T17:48:53.298Z,23.06
2022-08-26T17:51:23.714Z,23.06
2022-08-26T17:53:54.098Z,23.02
2022-08-26T17:56:25.717Z,23.02
2022-08-26T17:58:56.493Z,22.99
2022-08-26T18:01:27.620Z,22.98
2022-08-26T18:04:00.303Z,22.93
2022-08-26T18:06:30.307Z,22.91
2022-08-26T18:09:00.816Z,22.86
2022-08-26T18:11:32.082Z,22.84
2022-08-26T18:14:01.360Z,22.80
2022-08-26T18:16:34.053Z,22.77
2022-08-26T18:19:02.489Z,22.75
2022-08-26T18:21:30.987Z,22.72
2022-08-26T18:24:00.891Z,22.69
2022-08-26T18:26:32.117Z,22.68
2022-08-26T18:29:01.791Z,22.65
2022-08-26T18:31:31.217Z,22.60
2022-08-26T18:34:01.175Z,22.60
2022-08-26T18:36:32.347Z,22.58
2022-08-26T18:39:02.863Z,22.56
2022-08-26T18:41:33.397Z,22.55
2022-08-26T18:44:01.863Z,22.55
2022-08-26T18:46:30.294Z,22.53
2022-08-26T18:48:59.168Z,22.52
2022-08-26T18:51:30.593Z,22.50
2022-08-26T18:54:02.361Z,22.49
2022-08-26T18:56:33.480Z,22.49
2022-08-26T18:59:02.578Z,22.46
2022-08-26T19:01:32.214Z,22.44
2022-08-26T19:04:03.017Z,22.43
2022-08-26T19:06:35.334Z,22.40
2022-08-26T19:09:05.575Z,22.39
2022-08-26T19:11:37.423Z,22.37
2022-08-26T19:14:14.517Z,22.35
2022-08-26T19:16:44.960Z,22.33
2022-08-26T19:19:14.014Z,22.31
2022-08-26T19:21:42.915Z,22.29
2022-08-26T19:24:15.594Z,22.25
2022-08-26T19:26:47.330Z,22.23
2022-08-26T19:31:49.759Z,22.17
2022-08-26T19:34:20.731Z,22.16
2022-08-26T19:36:49.694Z,22.15
2022-08-26T19:39:18.102Z,22.14
2022-08-26T19:41:47.835Z,22.13
2022-08-26T19:44:35.887Z,22.09
2022-08-26T19:47:05.064Z,22.06
2022-08-26T19:49:33.620Z,22.03
2022-08-26T19:52:02.964Z,22.02
2022-08-26T19:54:31.638Z,21.99
2022-08-26T19:57:01.532Z,21.97
2022-08-26T19:59:30.093Z,21.94
2022-08-26T20:02:00.683Z,21.92
2022-08-26T20:04:30.349Z,21.90
2022-08-26T20:07:00.521Z,21.88
2022-08-26T20:09:30.007Z,21.85
2022-08-26T20:11:58.806Z,21.83
2022-08-26T20:14:29.844Z,21.81
2022-08-26T20:16:58.300Z,21.79
2022-08-26T20:19:44.386Z,21.76
2022-08-26T20:22:13.721Z,21.73
2022-08-26T20:24:42.309Z,21.71
2022-08-26T20:27:10.703Z,21.70
2022-08-26T20:29:40.847Z,21.69
2022-08-26T20:32:09.792Z,21.66
2022-08-26T20:34:38.599Z,21.62
2022-08-26T20:37:09.071Z,21.59
2022-08-26T20:39:37.584Z,21.57
2022-08-26T20:42:06.596Z,21.54
2022-08-26T20:44:54.533Z,21.50
2022-08-26T20:47:23.573Z,21.49
2022-08-26T20:49:52.687Z,21.46
2022-08-26T20:52:21.522Z,21.43
2022-08-26T20:54:52.703Z,21.40
2022-08-26T20:57:22.210Z,21.37
2022-08-26T20:59:51.921Z,21.35
2022-08-26T21:02:20.278Z,21.30
2022-08-26T21:04:48.624Z,21.26
2022-08-26T21:07:17.039Z,21.23
2022-08-26T21:09:46.086Z,21.20
2022-08-26T21:12:14.491Z,21.16
2022-08-26T21:14:45.649Z,21.14
2022-08-26T21:17:17.544Z,21.09
2022-08-26T21:19:46.001Z,21.06
2022-08-26T21:22:14.512Z,21.03
2022-08-26T21:24:42.845Z,21.02
2022-08-26T21:27:11.134Z,20.98
2022-08-26T21:29:39.639Z,20.95
2022-08-26T21:32:07.990Z,20.92
2022-08-26T21:34:39.737Z,20.88
2022-08-26T21:37:08.968Z,20.87
2022-08-26T21:39:45.017Z,20.85
2022-08-26T21:42:13.654Z,20.83
2022-08-26T21:44:43.351Z,20.82
2022-08-26T21:47:14.803Z,20.80
2022-08-26T21:49:44.873Z,20.76
2022-08-26T21:52:13.327Z,20.73
2022-08-26T21:54:41.657Z,20.70
2022-08-26T21:57:18.248Z,20.67
2022-08-26T21:59:46.648Z,20.64
2022-08-26T22:02:15.618Z,20.62
2022-08-26T22:04:48.718Z,20.60
2022-08-26T22:07:18.991Z,20.57
2022-08-26T22:09:47.407Z,20.54
2022-08-26T22:12:18.218Z,20.53
2022-08-26T22:14:46.975Z,20.51
2022-08-26T22:17:15.856Z,20.48
2022-08-26T22:19:46.736Z,20.46
2022-08-26T22:22:16.494Z,20.41
2022-08-26T22:24:45.180Z,20.37
2022-08-26T22:27:14.567Z,20.33
2022-08-26T22:29:43.024Z,20.29
2022-08-26T22:32:11.487Z,20.26
2022-08-26T22:34:40.501Z,20.22
2022-08-26T22:37:10.291Z,20.20
2022-08-26T22:39:39.370Z,20.16
2022-08-26T22:42:07.763Z,20.11
2022-08-26T22:44:37.464Z,20.06
2022-08-26T22:47:06.045Z,20.00
2022-08-26T22:49:34.414Z,19.96
2022-08-26T22:52:03.007Z,19.91
2022-08-26T22:54:32.802Z,19.87
2022-08-26T22:57:01.622Z,19.85
2022-08-26T22:59:30.019Z,19.82
2022-08-26T23:01:58.394Z,19.82
2022-08-26T23:04:26.799Z,19.82
2022-08-26T23:06:55.158Z,19.77
2022-08-26T23:09:23.502Z,19.74
2022-08-26T23:11:55.907Z,19.70
2022-08-26T23:14:25.652Z,19.69
2022-08-26T23:16:54.116Z,19.69
2022-08-26T23:19:23.894Z,19.68
2022-08-26T23:21:52.818Z,19.65
2022-08-26T23:24:21.324Z,19.65
2022-08-26T23:26:49.749Z,19.66
2022-08-26T23:29:19.544Z,19.65
2022-08-26T23:31:48.087Z,19.61
2022-08-26T23:34:33.997Z,19.59
2022-08-26T23:37:06.247Z,19.56
2022-08-26T23:39:36.328Z,19.54
2022-08-26T23:42:06.463Z,19.52
2022-08-26T23:44:36.178Z,19.49
2022-08-26T23:47:04.988Z,19.47
2022-08-26T23:49:34.089Z,19.44
2022-08-26T23:52:20.428Z,19.42
2022-08-26T23:54:48.863Z,19.39
2022-08-26T23:57:18.242Z,19.38
2022-08-26T23:59:48.500Z,19.36
